Darstellungsparameter: Aktuell verwendete Einstellungen:
Skalierung der Graphiken ... ?
xyx+y,   Skalierungsfaktor:      Skalierung: Modus: x, Faktor: 1
Darstellungszeitraum ... ?
Vom - - bis: - -   Zeitraum: 17.11.2007 - 17.11.2007
Min/Max/Avg-Anzeige ... ?
Zeige MMA aktuell
Zeige MMA Monat
Zeige MMA alles
Zeige --A aktuell
Zeige --A Monat
Zeige --A alles
Keine MMA-Anzeige
MMA:
Average (ber die Originaldaten)
MMA-Basis: 17.04.2019 - 19.05.2019
Quicknavigation für Darstellung... ?
Tage:      1T, 2T, 3T, 5T -1T -2T -3T -5T +1T +2T +3T +5T
Wochen: 1W, 2W, 3W -1W -2W -3W +1W +2W +3W
Monate: 1M, 3M, 6M -1M -3M -6M +1M +3M +6M
Jahre:    1J, 3J, 5J, 10J -1J -3J -5J -10J +1J +3J +5J +10J
Nutze für die Darstellung ... ?
Originaldaten oder Mittelwerte auf ...
Stundenbasis Tagesbasis Wochenbasis
Monatsbasis Jahresbasis      Datenbasis: Original-Daten
Darstellen als:
Statistik (Auto) Statistik J:M      Darstellung:
Zur Graphik,    zurück zur Übersicht aller Sensoren.
 
Tabellarische Datenbersicht: ?
 
Sensor: Nr:Datum:Temp:Abs-Feuchte:Windchill:Wind:
Aussen-T/F 1 17-11-2007 00:11:02 1 C 4.2 g/m*3 1 C 0 km/h
2 17-11-2007 00:23:03 1 C 4.2 g/m*3 1 C 0 km/h
3 17-11-2007 00:35:02 1.1 C 4.18 g/m*3 1.1 C 0 km/h
4 17-11-2007 00:47:02 1.1 C 4.18 g/m*3 1.1 C 0 km/h
5 17-11-2007 00:59:02 1.1 C 4.18 g/m*3 1.1 C 0 km/h
6 17-11-2007 01:11:02 1.2 C 4.21 g/m*3 1.2 C 0 km/h
7 17-11-2007 01:23:01 1.2 C 4.21 g/m*3 1.2 C 0 km/h
8 17-11-2007 01:35:01 1.3 C 4.19 g/m*3 1.3 C 0 km/h
9 17-11-2007 01:47:02 1.4 C 4.21 g/m*3 1.4 C 0 km/h
10 17-11-2007 01:59:02 1.4 C 4.21 g/m*3 1.4 C 0 km/h
11 17-11-2007 02:11:02 1.4 C 4.16 g/m*3 1.4 C 0 km/h
12 17-11-2007 02:23:02 1.5 C 4.14 g/m*3 1.5 C 0 km/h
13 17-11-2007 02:35:02 1.5 C 4.14 g/m*3 1.5 C 0 km/h
14 17-11-2007 02:48:03 1.5 C 4.14 g/m*3 1.5 C 0 km/h
15 17-11-2007 03:00:04 1.5 C 4.19 g/m*3 1.5 C 0 km/h
16 17-11-2007 03:12:04 1.5 C 4.19 g/m*3 1.5 C 0 km/h
17 17-11-2007 03:24:04 1.6 C 4.16 g/m*3 1.6 C 0 km/h
18 17-11-2007 03:36:02 1.6 C 4.22 g/m*3 1.6 C 0 km/h
19 17-11-2007 03:48:02 1.7 C 4.14 g/m*3 1.7 C 0 km/h
20 17-11-2007 04:00:02 1.7 C 4.19 g/m*3 1.7 C 0 km/h
21 17-11-2007 04:12:02 1.7 C 4.14 g/m*3 1.7 C 0 km/h
22 17-11-2007 04:24:02 1.7 C 4.19 g/m*3 1.7 C 0 km/h
23 17-11-2007 04:36:02 1.7 C 4.19 g/m*3 1.7 C 0 km/h
24 17-11-2007 04:48:02 1.7 C 4.19 g/m*3 1.7 C 0 km/h
25 17-11-2007 05:00:02 1.9 C 4.3 g/m*3 1.9 C 0 km/h
Sensor: Nr:Datum:Temp:Abs-Feuchte:Windchill:Wind:
Aussen-T/F 26 17-11-2007 05:12:01 1.9 C 4.3 g/m*3 1.9 C 0 km/h
27 17-11-2007 05:24:01 1.9 C 4.25 g/m*3 1.9 C 0 km/h
28 17-11-2007 05:36:01 1.8 C 4.28 g/m*3 1.8 C 0 km/h
29 17-11-2007 05:48:02 1.8 C 4.28 g/m*3 1.8 C 0 km/h
30 17-11-2007 06:00:02 1.9 C 4.3 g/m*3 1.9 C 0 km/h
31 17-11-2007 06:12:02 1.9 C 4.3 g/m*3 1.9 C 0 km/h
32 17-11-2007 06:24:02 1.9 C 4.36 g/m*3 1.9 C 0 km/h
33 17-11-2007 06:36:02 1.9 C 4.36 g/m*3 1.9 C 0 km/h
34 17-11-2007 06:48:03 1.9 C 4.36 g/m*3 1.9 C 0 km/h
35 17-11-2007 07:00:03 1.9 C 4.36 g/m*3 1.9 C 0 km/h
36 17-11-2007 07:12:02 1.9 C 4.36 g/m*3 1.9 C 0 km/h
37 17-11-2007 07:24:02 1.9 C 4.36 g/m*3 1.9 C 0 km/h
38 17-11-2007 07:36:02 1.9 C 4.36 g/m*3 1.9 C 0 km/h
39 17-11-2007 07:48:02 1.9 C 4.36 g/m*3 1.9 C 0 km/h
40 17-11-2007 08:00:02 2 C 4.39 g/m*3 2 C 0 km/h
41 17-11-2007 08:12:02 2 C 4.39 g/m*3 2 C 0 km/h
42 17-11-2007 08:24:02 2.1 C 4.42 g/m*3 2.1 C 0 km/h
43 17-11-2007 08:36:02 2.2 C 4.45 g/m*3 2.2 C 0 km/h
44 17-11-2007 08:48:03 2.2 C 4.45 g/m*3 2.2 C 0 km/h
45 17-11-2007 09:00:03 2.2 C 4.45 g/m*3 2.2 C 0 km/h
46 17-11-2007 09:12:02 2.3 C 4.48 g/m*3 2.3 C 0 km/h
47 17-11-2007 09:24:02 2.3 C 4.42 g/m*3 2.3 C 0 km/h
48 17-11-2007 09:36:02 2.4 C 4.4 g/m*3 2.4 C 0 km/h
49 17-11-2007 09:48:02 2.6 C 4.46 g/m*3 2.6 C 0 km/h
50 17-11-2007 10:00:02 2.7 C 4.49 g/m*3 2.7 C 0 km/h
Sensor: Nr:Datum:Temp:Abs-Feuchte:Windchill:Wind:
Aussen-T/F 51 17-11-2007 10:12:02 2.7 C 4.49 g/m*3 2.7 C 0 km/h
52 17-11-2007 10:24:02 3 C 4.46 g/m*3 3 C 0 km/h
53 17-11-2007 10:36:02 3.1 C 4.43 g/m*3 3.1 C 0 km/h
54 17-11-2007 10:48:02 3.2 C 4.4 g/m*3 3.2 C 0 km/h
55 17-11-2007 11:00:02 3.3 C 4.43 g/m*3 3.3 C 0 km/h
56 17-11-2007 11:12:02 3.4 C 4.46 g/m*3 3.4 C 0 km/h
57 17-11-2007 11:24:02 3.7 C 4.49 g/m*3 3.7 C 0 km/h
58 17-11-2007 11:36:02 4.1 C 4.48 g/m*3 4.1 C 0 km/h
59 17-11-2007 11:48:03 4.2 C 4.51 g/m*3 4.2 C 0 km/h
60 17-11-2007 12:00:03 4.2 C 4.45 g/m*3 4.2 C 0 km/h
61 17-11-2007 12:12:03 4.4 C 4.51 g/m*3 4.4 C 0 km/h
62 17-11-2007 12:24:03 4.7 C 4.6 g/m*3 4.7 C 0 km/h
63 17-11-2007 12:36:03 5.1 C 4.65 g/m*3 5.1 C 0 km/h
64 17-11-2007 12:48:02 5.4 C 4.67 g/m*3 5.4 C 0 km/h
65 17-11-2007 13:00:02 5.5 C 4.71 g/m*3 5.5 C 0 km/h
66 17-11-2007 13:12:02 5.5 C 4.64 g/m*3 5.5 C 0 km/h
67 17-11-2007 13:24:02 5.6 C 4.81 g/m*3 5.6 C 0 km/h
68 17-11-2007 13:36:02 5.7 C 4.77 g/m*3 5.7 C 0 km/h
69 17-11-2007 13:48:02 6 C 4.86 g/m*3 6 C 0 km/h
70 17-11-2007 14:00:02 6.3 C 4.96 g/m*3 6.3 C 0 km/h
71 17-11-2007 14:12:02 6.6 C 4.98 g/m*3 6.6 C 0 km/h
72 17-11-2007 14:24:02 6.6 C 4.98 g/m*3 6.6 C 0 km/h
73 17-11-2007 14:36:02 6.5 C 4.95 g/m*3 6.5 C 0 km/h
74 17-11-2007 14:48:03 6.3 C 4.96 g/m*3 6.3 C 0 km/h
75 17-11-2007 15:00:03 6.3 C 5.03 g/m*3 6.3 C 0 km/h
Sensor: Nr:Datum:Temp:Abs-Feuchte:Windchill:Wind:
Aussen-T/F 76 17-11-2007 15:12:03 6.3 C 5.03 g/m*3 6.3 C 0 km/h
77 17-11-2007 15:24:03 6.2 C 5 g/m*3 6.2 C 0 km/h
78 17-11-2007 15:36:03 6.2 C 5.07 g/m*3 6.2 C 0 km/h
79 17-11-2007 15:48:01 6 C 5.01 g/m*3 6 C 0 km/h
80 17-11-2007 16:00:01 5.9 C 5.05 g/m*3 5.9 C 0 km/h
81 17-11-2007 16:12:01 5.6 C 5.02 g/m*3 5.6 C 0 km/h
82 17-11-2007 16:24:01 5.4 C 5.02 g/m*3 5.4 C 0 km/h
83 17-11-2007 16:36:01 5.3 C 5.13 g/m*3 5.3 C 0 km/h
84 17-11-2007 16:48:03 5 C 5.1 g/m*3 5 C 0 km/h
85 17-11-2007 17:00:03 4.8 C 5.16 g/m*3 4.8 C 0 km/h
86 17-11-2007 17:12:03 4.7 C 5.13 g/m*3 4.7 C 0 km/h
87 17-11-2007 17:24:02 4.6 C 5.16 g/m*3 4.6 C 0 km/h
88 17-11-2007 17:36:02 4.5 C 5.13 g/m*3 4.5 C 0 km/h
89 17-11-2007 17:48:02 4.4 C 5.16 g/m*3 4.4 C 0 km/h
90 17-11-2007 18:00:02 4.3 C 5.12 g/m*3 4.3 C 0 km/h
91 17-11-2007 18:12:02 4.3 C 5.19 g/m*3 4.3 C 0 km/h
92 17-11-2007 18:24:01 4.2 C 5.15 g/m*3 4.2 C 0 km/h
93 17-11-2007 18:36:02 4.2 C 5.15 g/m*3 4.2 C 0 km/h
94 17-11-2007 18:48:02 4.2 C 5.15 g/m*3 4.2 C 0 km/h
95 17-11-2007 19:00:02 4.1 C 5.12 g/m*3 4.1 C 0 km/h
96 17-11-2007 19:12:02 4 C 5.15 g/m*3 4 C 0 km/h
97 17-11-2007 19:24:02 4 C 5.15 g/m*3 4 C 0 km/h
98 17-11-2007 19:36:02 4 C 5.15 g/m*3 4 C 0 km/h
99 17-11-2007 19:48:02 4.3 C 5.25 g/m*3 4.3 C 0 km/h
100 17-11-2007 20:00:02 4.1 C 5.18 g/m*3 4.1 C 0 km/h
Sensor: Nr:Datum:Temp:Abs-Feuchte:Windchill:Wind:
Aussen-T/F 101 17-11-2007 20:12:02 4.3 C 5.25 g/m*3 4.3 C 0 km/h
102 17-11-2007 20:24:02 4 C 5.15 g/m*3 4 C 0 km/h
103 17-11-2007 20:36:02 4 C 5.15 g/m*3 4 C 0 km/h
104 17-11-2007 20:48:02 3.9 C 5.18 g/m*3 3.9 C 0 km/h
105 17-11-2007 21:00:02 4.4 C 5.35 g/m*3 4.4 C 0 km/h
106 17-11-2007 21:12:02 3.8 C 5.21 g/m*3 3.8 C 0 km/h
107 17-11-2007 21:24:03 3.7 C 5.17 g/m*3 3.7 C 0 km/h
108 17-11-2007 21:36:03 3.7 C 5.17 g/m*3 3.7 C 0 km/h
109 17-11-2007 21:48:02 3.6 C 5.14 g/m*3 3.6 C 0 km/h
110 17-11-2007 22:00:02 3.6 C 5.14 g/m*3 3.6 C 0 km/h
111 17-11-2007 22:12:02 3.6 C 5.14 g/m*3 3.6 C 0 km/h
112 17-11-2007 22:24:02 3.5 C 5.16 g/m*3 3.5 C 0 km/h
113 17-11-2007 22:36:02 3.5 C 5.16 g/m*3 3.5 C 0 km/h
114 17-11-2007 22:48:02 3.5 C 5.16 g/m*3 3.5 C 0 km/h
115 17-11-2007 23:00:02 3.5 C 5.16 g/m*3 3.5 C 0 km/h
116 17-11-2007 23:12:01 3.4 C 5.13 g/m*3 3.4 C 0 km/h
117 17-11-2007 23:24:02 3.4 C 5.13 g/m*3 3.4 C 0 km/h
118 17-11-2007 23:36:02 3.4 C 5.19 g/m*3 3.4 C 0 km/h
119 17-11-2007 23:48:02 3.3 C 5.1 g/m*3 3.3 C 0 km/h

Legende:
   Min
   Max


Maximal/Minimal-Werte vom 17.04.2019 - 19.05.2019

Sensor Min Max Avg
Temp
(Aussen-T/F)
2.2 °C
13-05-2019  06:50:00
26.6 °C
24-04-2019  17:05:00
11.51 °C

Die Daten stammen von einer Davis Vantage Pro 2 Wetter-Station und werden unter Linux mit der Software wview2wettercgi und aufbereitet. Alle Angaben erfolgen ohne Gewähr für ihre Vollständigkeit oder Richtigkeit.
Kontakt: Rainer Krienke krienke@uni-koblenz.de . Meine Webseiten an der Uni Koblenz oder privat.
Version: $Revision: 0.78 $